createdAt,value
2022-12-25T00:01:24.708Z,8.43
2022-12-25T00:03:52.553Z,7.95
2022-12-25T00:06:19.609Z,4.65
2022-12-25T00:08:46.469Z,6.35
2022-12-25T00:11:15.316Z,4.15
2022-12-25T00:13:42.538Z,6.10
2022-12-25T00:16:21.527Z,4.50
2022-12-25T00:18:48.953Z,3.80
2022-12-25T00:21:15.829Z,4.60
2022-12-25T00:23:43.116Z,6.90
2022-12-25T00:26:14.878Z,6.75
2022-12-25T00:28:41.795Z,7.18
2022-12-25T00:31:16.728Z,5.68
2022-12-25T00:33:45.015Z,5.43
2022-12-25T00:36:12.689Z,9.05
2022-12-25T00:38:40.152Z,7.63
2022-12-25T00:41:12.667Z,5.28
2022-12-25T00:43:39.565Z,13.27
2022-12-25T00:46:06.784Z,7.38
2022-12-25T00:48:34.186Z,8.55
2022-12-25T00:51:03.123Z,9.15
2022-12-25T00:53:30.212Z,8.20
2022-12-25T00:55:59.329Z,7.63
2022-12-25T00:58:27.069Z,6.25
2022-12-25T01:00:54.059Z,6.95
2022-12-25T01:03:20.810Z,6.10
2022-12-25T01:05:59.111Z,6.03
2022-12-25T01:08:26.090Z,7.53
2022-12-25T01:10:57.329Z,7.03
2022-12-25T01:13:24.208Z,5.63
2022-12-25T01:15:52.322Z,5.03
2022-12-25T01:18:19.665Z,7.60
2022-12-25T01:20:46.607Z,5.25
2022-12-25T01:23:13.884Z,5.22
2022-12-25T01:25:41.377Z,7.30
2022-12-25T01:28:08.188Z,5.97
2022-12-25T01:30:35.603Z,5.30
2022-12-25T01:33:02.539Z,9.70
2022-12-25T01:35:29.657Z,5.35
2022-12-25T01:37:56.537Z,7.65
2022-12-25T01:40:23.499Z,7.45
2022-12-25T01:42:53.320Z,7.53
2022-12-25T01:45:38.157Z,7.30
2022-12-25T01:48:17.865Z,11.07
2022-12-25T01:50:51.843Z,8.18
2022-12-25T01:53:18.625Z,6.80
2022-12-25T01:55:45.762Z,8.60
2022-12-25T01:58:12.552Z,7.22
2022-12-25T02:00:39.203Z,7.85
2022-12-25T02:03:06.021Z,7.35
2022-12-25T02:05:33.929Z,4.22
2022-12-25T02:08:09.672Z,5.85
2022-12-25T02:10:36.947Z,7.65
2022-12-25T02:13:03.719Z,7.57
2022-12-25T02:15:35.722Z,7.88
2022-12-25T02:18:02.465Z,8.02
2022-12-25T02:21:07.535Z,10.02
2022-12-25T02:23:43.448Z,4.68
2022-12-25T02:26:16.805Z,7.15
2022-12-25T02:28:53.267Z,8.43
2022-12-25T02:31:37.198Z,4.65
2022-12-25T02:34:26.402Z,6.40
2022-12-25T02:37:07.262Z,5.60
2022-12-25T02:39:59.829Z,8.43
2022-12-25T02:43:06.706Z,9.30
2022-12-25T02:46:02.853Z,7.30
2022-12-25T02:48:50.742Z,9.82
2022-12-25T02:51:37.377Z,6.68
2022-12-25T02:54:24.658Z,7.88
2022-12-25T02:57:09.899Z,9.07
2022-12-25T02:59:56.692Z,6.85
2022-12-25T03:02:42.285Z,9.68
2022-12-25T03:05:29.501Z,5.25
2022-12-25T03:07:56.328Z,5.70
2022-12-25T03:10:41.611Z,5.18
2022-12-25T03:13:17.235Z,6.38
2022-12-25T03:16:02.551Z,5.35
2022-12-25T03:18:29.316Z,3.80
2022-12-25T03:21:14.370Z,5.20
2022-12-25T03:24:22.012Z,4.18
2022-12-25T03:26:57.671Z,8.15
2022-12-25T03:29:48.137Z,6.28
2022-12-25T03:32:21.253Z,6.40
2022-12-25T03:37:48.057Z,5.60
2022-12-25T03:40:50.640Z,7.47
2022-12-25T03:44:10.089Z,7.05
2022-12-25T03:46:55.770Z,5.32
2022-12-25T03:49:46.129Z,4.28
2022-12-25T03:52:33.071Z,6.90
2022-12-25T03:55:18.918Z,4.43
2022-12-25T03:58:04.368Z,5.68
2022-12-25T04:00:49.654Z,5.55
2022-12-25T04:03:35.139Z,4.55
2022-12-25T04:06:20.464Z,4.28
2022-12-25T04:09:05.945Z,6.10
2022-12-25T04:11:51.115Z,3.53
2022-12-25T04:14:36.312Z,4.05
2022-12-25T04:17:21.884Z,5.70
2022-12-25T04:20:07.370Z,4.80
2022-12-25T04:22:52.492Z,4.25
2022-12-25T04:25:37.805Z,9.02
2022-12-25T04:28:23.531Z,4.90
2022-12-25T04:31:08.803Z,5.07
2022-12-25T04:33:54.152Z,5.63
2022-12-25T04:36:21.463Z,6.63
2022-12-25T04:38:48.272Z,3.88
2022-12-25T04:41:15.018Z,4.63
2022-12-25T04:43:41.816Z,4.68
2022-12-25T04:46:09.062Z,5.90
2022-12-25T04:48:36.470Z,8.30
2022-12-25T04:51:14.773Z,5.15
2022-12-25T04:53:41.568Z,5.85
2022-12-25T04:56:08.445Z,5.32
2022-12-25T04:58:35.186Z,5.05
2022-12-25T05:01:03.385Z,6.53
2022-12-25T05:03:30.654Z,4.63
2022-12-25T05:05:57.466Z,8.57
2022-12-25T05:08:24.249Z,6.18
2022-12-25T05:10:50.985Z,5.63
2022-12-25T05:13:17.767Z,6.78
2022-12-25T05:15:44.622Z,7.55
2022-12-25T05:18:11.396Z,10.13
2022-12-25T05:20:40.141Z,4.00
2022-12-25T05:23:07.603Z,4.68
2022-12-25T05:25:34.322Z,6.88
2022-12-25T05:28:01.108Z,5.75
2022-12-25T05:30:27.841Z,4.50
2022-12-25T05:32:54.494Z,6.72
2022-12-25T05:35:21.375Z,6.32
2022-12-25T05:37:48.072Z,5.07
2022-12-25T05:40:14.821Z,8.57
2022-12-25T05:42:41.568Z,5.97
2022-12-25T05:45:08.635Z,7.10
2022-12-25T05:47:35.331Z,8.20
2022-12-25T05:50:02.711Z,6.63
2022-12-25T05:52:33.331Z,4.78
2022-12-25T05:55:00.573Z,6.05
2022-12-25T05:57:31.271Z,7.53
2022-12-25T05:59:58.049Z,6.38
2022-12-25T06:02:25.258Z,6.60
2022-12-25T06:04:52.198Z,5.95
2022-12-25T06:07:18.986Z,5.78
2022-12-25T06:09:45.837Z,7.95
2022-12-25T06:12:12.530Z,5.18
2022-12-25T06:14:39.244Z,4.43
2022-12-25T06:17:05.977Z,6.25
2022-12-25T06:19:32.860Z,4.00
2022-12-25T06:21:59.728Z,4.55
2022-12-25T06:24:26.653Z,4.72
2022-12-25T06:26:53.388Z,4.28
2022-12-25T06:29:20.277Z,5.88
2022-12-25T06:31:46.989Z,6.07
2022-12-25T06:34:16.718Z,3.67
2022-12-25T06:36:43.651Z,4.53
2022-12-25T06:39:10.765Z,4.00
2022-12-25T06:41:37.464Z,4.45
2022-12-25T06:44:04.181Z,4.78
2022-12-25T06:46:31.031Z,5.63
2022-12-25T06:48:58.575Z,6.55
2022-12-25T06:51:27.946Z,4.47
2022-12-25T06:53:55.641Z,5.15
2022-12-25T06:56:25.024Z,6.07
2022-12-25T06:58:54.015Z,3.03
2022-12-25T07:01:48.282Z,5.50
2022-12-25T07:04:19.883Z,4.25
2022-12-25T07:06:46.679Z,3.67
2022-12-25T07:09:13.490Z,5.07
2022-12-25T07:11:40.228Z,6.30
2022-12-25T07:14:06.970Z,3.17
2022-12-25T07:16:33.743Z,7.30
2022-12-25T07:19:01.376Z,5.40
2022-12-25T07:21:28.123Z,2.83
2022-12-25T07:23:54.907Z,5.20
2022-12-25T07:26:21.588Z,3.10
2022-12-25T07:28:48.320Z,4.53
2022-12-25T07:31:16.549Z,4.30
2022-12-25T07:33:43.716Z,3.88
2022-12-25T07:36:12.797Z,5.32
2022-12-25T07:38:42.844Z,4.88
2022-12-25T07:41:11.011Z,5.68
2022-12-25T07:43:37.772Z,5.85
2022-12-25T07:46:05.187Z,6.25
2022-12-25T07:48:32.247Z,5.03
2022-12-25T07:51:07.016Z,4.35
2022-12-25T07:53:35.053Z,6.00
2022-12-25T07:56:06.483Z,4.65
2022-12-25T07:58:33.514Z,5.50
2022-12-25T08:01:08.336Z,5.35
2022-12-25T08:03:35.675Z,3.97
2022-12-25T08:06:07.211Z,5.00
2022-12-25T08:08:34.215Z,5.53
2022-12-25T08:11:01.010Z,4.95
2022-12-25T08:13:30.971Z,5.55
2022-12-25T08:15:59.549Z,6.20
2022-12-25T08:18:29.855Z,7.50
2022-12-25T08:20:57.299Z,5.65
2022-12-25T08:23:23.997Z,5.00
2022-12-25T08:25:50.697Z,5.43
2022-12-25T08:28:17.462Z,8.00
2022-12-25T08:30:44.308Z,6.90
2022-12-25T08:33:11.103Z,10.65
2022-12-25T08:35:37.817Z,5.35
2022-12-25T08:38:04.549Z,6.45
2022-12-25T08:40:32.558Z,5.45
2022-12-25T08:42:59.439Z,7.57
2022-12-25T08:45:31.195Z,7.97
2022-12-25T08:48:01.393Z,10.70
2022-12-25T08:50:28.102Z,15.40
2022-12-25T08:52:54.816Z,15.75
2022-12-25T08:55:21.652Z,16.08
2022-12-25T08:57:48.310Z,14.77
2022-12-25T09:00:15.671Z,8.90
2022-12-25T09:02:42.516Z,10.05
2022-12-25T09:05:09.588Z,8.65
2022-12-25T09:07:36.340Z,10.95
2022-12-25T09:10:03.149Z,9.38
2022-12-25T09:12:29.817Z,8.05
2022-12-25T09:14:56.655Z,8.85
2022-12-25T09:17:23.585Z,6.72
2022-12-25T09:19:50.284Z,7.40
2022-12-25T09:22:17.096Z,6.13
2022-12-25T09:24:43.877Z,9.85
2022-12-25T09:27:10.551Z,8.55
2022-12-25T09:29:39.123Z,8.20
2022-12-25T09:32:07.134Z,7.97
2022-12-25T09:34:34.087Z,9.60
2022-12-25T09:37:01.116Z,7.18
2022-12-25T09:39:28.029Z,7.85
2022-12-25T09:42:11.020Z,7.68
2022-12-25T09:44:41.030Z,11.80
2022-12-25T09:47:19.534Z,11.48
2022-12-25T09:49:58.432Z,5.38
2022-12-25T09:52:37.966Z,8.05
2022-12-25T09:55:20.692Z,7.78
2022-12-25T09:57:55.222Z,4.97
2022-12-25T10:00:24.227Z,4.78
2022-12-25T10:03:28.497Z,5.88
2022-12-25T10:06:28.118Z,4.50
2022-12-25T10:09:09.298Z,5.78
2022-12-25T10:12:01.059Z,5.25
2022-12-25T10:14:51.010Z,6.03
2022-12-25T10:18:08.275Z,6.93
2022-12-25T10:20:57.116Z,4.28
2022-12-25T10:23:30.877Z,4.32
2022-12-25T10:25:57.707Z,4.15
2022-12-25T10:28:33.765Z,5.03
2022-12-25T10:31:02.896Z,4.53
2022-12-25T10:33:29.630Z,3.80
2022-12-25T10:35:56.341Z,4.53
2022-12-25T10:38:22.988Z,3.90
2022-12-25T10:41:11.602Z,2.83
2022-12-25T10:43:55.577Z,3.38
2022-12-25T10:46:23.655Z,3.60
2022-12-25T10:48:53.549Z,3.20
2022-12-25T10:51:37.893Z,3.90
2022-12-25T10:54:35.822Z,4.43
2022-12-25T10:57:08.563Z,2.15
2022-12-25T10:59:41.952Z,3.05
2022-12-25T11:02:34.698Z,2.33
2022-12-25T11:05:04.553Z,2.58
2022-12-25T11:07:31.479Z,3.92
2022-12-25T11:10:05.678Z,5.65
2022-12-25T11:12:37.782Z,5.07
2022-12-25T11:15:26.992Z,3.45
2022-12-25T11:17:56.330Z,4.78
2022-12-25T11:20:23.062Z,4.43
2022-12-25T11:22:50.340Z,3.25
2022-12-25T11:25:27.894Z,3.78
2022-12-25T11:27:59.609Z,3.85
2022-12-25T11:30:26.651Z,3.60
2022-12-25T11:32:56.287Z,5.43
2022-12-25T11:35:25.456Z,4.80
2022-12-25T11:37:52.724Z,3.88
2022-12-25T11:40:35.007Z,2.63
2022-12-25T11:43:10.890Z,5.70
2022-12-25T11:46:10.610Z,5.07
2022-12-25T11:48:50.181Z,3.60
2022-12-25T11:51:16.949Z,3.03
2022-12-25T11:53:57.745Z,2.97
2022-12-25T11:56:28.269Z,2.72
2022-12-25T11:59:28.456Z,2.55
2022-12-25T12:02:17.190Z,2.92
2022-12-25T12:04:44.396Z,2.75
2022-12-25T12:07:18.851Z,3.30
2022-12-25T12:09:51.494Z,3.00
2022-12-25T12:12:21.265Z,4.35
2022-12-25T12:15:17.292Z,2.70
2022-12-25T12:17:44.037Z,2.28
2022-12-25T12:20:27.165Z,1.67
2022-12-25T12:25:20.564Z,3.13
2022-12-25T12:27:53.087Z,2.22
2022-12-25T12:30:28.572Z,1.52
2022-12-25T12:32:58.843Z,1.55
2022-12-25T12:35:36.818Z,2.58
2022-12-25T12:38:05.428Z,1.83
2022-12-25T12:41:01.871Z,2.35
2022-12-25T12:43:36.801Z,3.03
2022-12-25T12:46:21.564Z,1.90
2022-12-25T12:48:53.195Z,2.28
2022-12-25T12:51:35.129Z,2.20
2022-12-25T12:54:24.244Z,1.45
2022-12-25T12:57:01.194Z,2.33
2022-12-25T12:59:33.713Z,4.85
2022-12-25T13:02:07.190Z,3.97
2022-12-25T13:04:53.049Z,2.20
2022-12-25T13:07:45.026Z,2.70
2022-12-25T13:10:26.049Z,2.15
2022-12-25T13:12:57.698Z,3.33
2022-12-25T13:15:27.045Z,2.85
2022-12-25T13:17:56.460Z,2.72
2022-12-25T13:20:25.472Z,2.10
2022-12-25T13:22:53.043Z,4.13
2022-12-25T13:25:21.990Z,1.75
2022-12-25T13:27:56.264Z,3.40
2022-12-25T13:30:23.666Z,1.92
2022-12-25T13:32:50.434Z,2.28
2022-12-25T13:35:17.281Z,3.70
2022-12-25T13:37:44.176Z,2.13
2022-12-25T13:40:24.236Z,2.30
2022-12-25T13:42:50.921Z,2.47
2022-12-25T13:45:26.389Z,2.10
2022-12-25T13:48:35.561Z,1.50
2022-12-25T13:51:02.695Z,1.95
2022-12-25T13:53:29.440Z,2.55
2022-12-25T13:55:58.325Z,1.75
2022-12-25T13:58:33.433Z,1.58
2022-12-25T14:01:01.869Z,1.40
2022-12-25T14:03:37.883Z,2.47
2022-12-25T14:06:08.021Z,2.35
2022-12-25T14:08:35.566Z,2.88
2022-12-25T14:11:04.828Z,2.08
2022-12-25T14:13:32.788Z,3.80
2022-12-25T14:15:59.566Z,1.95
2022-12-25T14:18:26.399Z,1.33
2022-12-25T14:21:13.374Z,1.90
2022-12-25T14:23:43.991Z,2.45
2022-12-25T14:26:21.553Z,3.50
2022-12-25T14:28:58.136Z,1.50
2022-12-25T14:31:25.184Z,2.33
2022-12-25T14:33:52.652Z,3.60
2022-12-25T14:36:19.610Z,5.82
2022-12-25T14:38:55.273Z,2.65
2022-12-25T14:41:33.931Z,2.58
2022-12-25T14:44:37.026Z,3.42
2022-12-25T14:47:12.982Z,2.40
2022-12-25T14:49:39.818Z,3.30
2022-12-25T14:52:27.490Z,2.40
2022-12-25T14:54:59.186Z,8.70
2022-12-25T14:57:48.123Z,5.70
2022-12-25T15:00:26.956Z,4.10
2022-12-25T15:02:54.674Z,3.38
2022-12-25T15:05:36.541Z,3.38
2022-12-25T15:08:13.571Z,3.40
2022-12-25T15:13:27.822Z,2.33
2022-12-25T15:16:02.810Z,2.47
2022-12-25T15:18:36.503Z,2.33
2022-12-25T15:21:03.533Z,1.75
2022-12-25T15:23:30.315Z,4.20
2022-12-25T15:25:57.037Z,3.88
2022-12-25T15:28:23.749Z,2.92
2022-12-25T15:30:50.608Z,2.72
2022-12-25T15:33:18.607Z,3.70
2022-12-25T15:35:45.809Z,3.40
2022-12-25T15:38:12.974Z,4.13
2022-12-25T15:40:40.258Z,4.05
2022-12-25T15:43:14.470Z,2.85
2022-12-25T15:45:53.907Z,4.13
2022-12-25T15:48:20.606Z,5.68
2022-12-25T15:50:47.354Z,5.93
2022-12-25T15:53:14.273Z,10.82
2022-12-25T15:55:41.028Z,9.73
2022-12-25T15:58:12.521Z,5.75
2022-12-25T16:00:39.290Z,3.05
2022-12-25T16:03:06.161Z,3.22
2022-12-25T16:05:33.061Z,3.88
2022-12-25T16:07:59.867Z,2.70
2022-12-25T16:10:26.717Z,2.45
2022-12-25T16:12:53.395Z,2.97
2022-12-25T16:15:20.127Z,2.45
2022-12-25T16:17:47.004Z,2.53
2022-12-25T16:20:14.073Z,2.78
2022-12-25T16:22:40.960Z,2.90
2022-12-25T16:25:24.250Z,3.15
2022-12-25T16:27:51.211Z,3.03
2022-12-25T16:30:18.329Z,3.35
2022-12-25T16:32:48.636Z,7.90
2022-12-25T16:35:15.537Z,4.63
2022-12-25T16:37:42.264Z,2.80
2022-12-25T16:40:09.892Z,6.63
2022-12-25T16:42:37.699Z,9.55
2022-12-25T16:45:05.059Z,3.72
2022-12-25T16:47:31.978Z,3.67
2022-12-25T16:49:58.940Z,1.92
2022-12-25T16:52:26.207Z,3.65
2022-12-25T16:54:53.001Z,2.60
2022-12-25T16:57:19.746Z,3.20
2022-12-25T16:59:46.811Z,3.67
2022-12-25T17:02:18.022Z,3.58
2022-12-25T17:04:45.452Z,5.32
2022-12-25T17:07:13.082Z,2.50
2022-12-25T17:09:44.154Z,3.65
2022-12-25T17:12:11.370Z,4.22
2022-12-25T17:14:38.147Z,5.50
2022-12-25T17:17:04.935Z,4.22
2022-12-25T17:19:31.730Z,2.90
2022-12-25T17:21:59.951Z,3.88
2022-12-25T17:24:27.578Z,3.50
2022-12-25T17:26:54.545Z,1.98
2022-12-25T17:29:22.711Z,1.90
2022-12-25T17:31:50.552Z,2.08
2022-12-25T17:34:17.450Z,2.72
2022-12-25T17:36:44.302Z,2.60
2022-12-25T17:39:11.484Z,2.47
2022-12-25T17:41:38.375Z,5.03
2022-12-25T17:44:05.398Z,11.35
2022-12-25T17:46:32.531Z,17.40
2022-12-25T17:49:01.388Z,17.75
2022-12-25T17:51:29.548Z,7.55
2022-12-25T17:53:58.566Z,3.58
2022-12-25T17:56:25.988Z,2.08
2022-12-25T17:58:57.039Z,4.72
2022-12-25T18:01:25.020Z,3.20
2022-12-25T18:03:52.350Z,3.80
2022-12-25T18:06:21.799Z,4.05
2022-12-25T18:08:48.944Z,3.13
2022-12-25T18:11:18.024Z,3.05
2022-12-25T18:13:50.041Z,4.25
2022-12-25T18:16:17.617Z,2.97
2022-12-25T18:18:51.352Z,3.30
2022-12-25T18:21:19.741Z,2.20
2022-12-25T18:23:46.593Z,3.17
2022-12-25T18:26:13.861Z,3.10
2022-12-25T18:28:42.699Z,4.05
2022-12-25T18:31:18.689Z,4.50
2022-12-25T18:33:45.737Z,3.10
2022-12-25T18:36:13.519Z,3.20
2022-12-25T18:38:40.576Z,2.63
2022-12-25T18:41:09.828Z,2.92
2022-12-25T18:43:53.427Z,2.10
2022-12-25T18:46:26.574Z,1.80
2022-12-25T18:48:56.947Z,2.47
2022-12-25T18:51:24.031Z,4.20
2022-12-25T18:53:51.347Z,2.38
2022-12-25T18:56:18.682Z,3.38
2022-12-25T18:58:46.531Z,5.10
2022-12-25T19:01:17.371Z,6.45
2022-12-25T19:03:45.358Z,4.55
2022-12-25T19:06:19.487Z,4.65
2022-12-25T19:08:46.196Z,4.03
2022-12-25T19:11:13.254Z,4.82
2022-12-25T19:13:39.964Z,4.28
2022-12-25T19:16:06.918Z,3.25
2022-12-25T19:18:33.675Z,3.72
2022-12-25T19:21:05.332Z,5.53
2022-12-25T19:23:32.170Z,4.88
2022-12-25T19:25:58.938Z,3.53
2022-12-25T19:28:25.667Z,2.88
2022-12-25T19:30:54.087Z,3.78
2022-12-25T19:33:21.849Z,4.57
2022-12-25T19:35:49.158Z,2.80
2022-12-25T19:38:16.096Z,4.93
2022-12-25T19:41:00.564Z,3.20
2022-12-25T19:43:29.007Z,3.75
2022-12-25T19:45:55.921Z,2.08
2022-12-25T19:48:22.799Z,5.72
2022-12-25T19:50:50.574Z,2.20
2022-12-25T19:53:17.686Z,2.70
2022-12-25T19:55:45.217Z,2.30
2022-12-25T19:58:12.538Z,3.20
2022-12-25T20:00:40.561Z,2.70
2022-12-25T20:03:08.440Z,3.22
2022-12-25T20:05:35.498Z,2.50
2022-12-25T20:08:02.561Z,1.60
2022-12-25T20:10:29.304Z,2.67
2022-12-25T20:12:56.020Z,2.92
2022-12-25T20:15:22.885Z,2.90
2022-12-25T20:17:49.654Z,2.40
2022-12-25T20:20:16.431Z,2.92
2022-12-25T20:22:43.199Z,4.53
2022-12-25T20:25:11.182Z,2.70
2022-12-25T20:27:37.901Z,2.38
2022-12-25T20:30:05.250Z,2.88
2022-12-25T20:32:31.936Z,2.97
2022-12-25T20:34:58.650Z,2.10
2022-12-25T20:37:25.389Z,3.20
2022-12-25T20:39:52.178Z,2.40
2022-12-25T20:42:19.021Z,2.50
2022-12-25T20:44:46.336Z,5.43
2022-12-25T20:47:13.262Z,2.95
2022-12-25T20:49:40.049Z,7.30
2022-12-25T20:52:07.565Z,2.42
2022-12-25T20:54:34.639Z,2.42
2022-12-25T20:57:01.637Z,3.50
2022-12-25T20:59:33.488Z,3.78
2022-12-25T21:02:03.965Z,4.60
2022-12-25T21:04:30.833Z,2.72
2022-12-25T21:06:57.522Z,3.53
2022-12-25T21:09:24.211Z,3.50
2022-12-25T21:11:52.192Z,2.50
2022-12-25T21:14:19.027Z,3.00
2022-12-25T21:16:45.969Z,2.80
2022-12-25T21:19:12.670Z,2.53
2022-12-25T21:21:42.851Z,3.72
2022-12-25T21:24:10.452Z,2.20
2022-12-25T21:26:39.886Z,2.97
2022-12-25T21:29:08.508Z,3.88
2022-12-25T21:31:55.478Z,3.10
2022-12-25T21:34:22.536Z,3.63
2022-12-25T21:36:49.492Z,2.80
2022-12-25T21:39:16.455Z,3.72
2022-12-25T21:41:43.447Z,2.83
2022-12-25T21:44:10.733Z,5.97
2022-12-25T21:46:37.566Z,2.95
2022-12-25T21:49:04.447Z,2.90
2022-12-25T21:51:51.756Z,2.20
2022-12-25T21:54:20.086Z,4.18
2022-12-25T21:56:48.245Z,4.75
2022-12-25T21:59:17.734Z,3.55
2022-12-25T22:01:45.692Z,3.88
2022-12-25T22:04:13.830Z,2.80
2022-12-25T22:06:58.970Z,6.03
2022-12-25T22:09:25.806Z,3.35
2022-12-25T22:12:11.166Z,3.05
2022-12-25T22:15:02.561Z,4.53
2022-12-25T22:17:50.429Z,4.55
2022-12-25T22:20:30.224Z,4.63
2022-12-25T22:22:57.854Z,3.53
2022-12-25T22:25:24.840Z,3.72
2022-12-25T22:27:51.703Z,5.03
2022-12-25T22:30:26.772Z,4.75
2022-12-25T22:32:53.650Z,5.85
2022-12-25T22:35:20.837Z,7.65
2022-12-25T22:37:48.434Z,2.95
2022-12-25T22:40:16.527Z,6.53
2022-12-25T22:42:43.514Z,1.92
2022-12-25T22:45:11.112Z,3.65
2022-12-25T22:47:37.816Z,3.38
2022-12-25T22:50:05.163Z,2.03
2022-12-25T22:52:31.884Z,1.73
2022-12-25T22:54:58.573Z,3.95
2022-12-25T22:57:25.353Z,3.78
2022-12-25T22:59:53.080Z,2.42
2022-12-25T23:02:20.456Z,3.25
2022-12-25T23:04:47.512Z,2.55
2022-12-25T23:07:14.656Z,3.05
2022-12-25T23:09:42.314Z,2.00
2022-12-25T23:12:29.032Z,3.08
2022-12-25T23:14:56.554Z,2.88
2022-12-25T23:17:41.801Z,3.10
2022-12-25T23:20:28.077Z,3.80
2022-12-25T23:23:13.270Z,7.35
2022-12-25T23:25:58.830Z,2.33
2022-12-25T23:28:44.309Z,4.75
2022-12-25T23:31:11.021Z,2.63
2022-12-25T23:33:37.712Z,2.95
2022-12-25T23:36:05.741Z,3.67
2022-12-25T23:38:32.580Z,3.00
2022-12-25T23:40:59.511Z,3.47
2022-12-25T23:43:26.168Z,2.60
2022-12-25T23:45:52.933Z,2.75
2022-12-25T23:48:19.611Z,2.88
2022-12-25T23:50:46.445Z,3.67
2022-12-25T23:53:13.119Z,4.50
2022-12-25T23:55:42.261Z,2.45
2022-12-25T23:58:09.158Z,3.55
